sensor_id;sensor_type;location;lat;lon;timestamp;temperature;humidity
20400;DHT22;10359;53.596;22.520;2022-11-15T00:00:06;8.20;99.90
20400;DHT22;10359;53.596;22.520;2022-11-15T00:02:35;8.30;99.90
20400;DHT22;10359;53.596;22.520;2022-11-15T00:05:04;8.30;99.90
20400;DHT22;10359;53.596;22.520;2022-11-15T00:07:33;8.30;99.90
20400;DHT22;10359;53.596;22.520;2022-11-15T00:10:22;8.30;99.90
20400;DHT22;10359;53.596;22.520;2022-11-15T00:12:50;8.20;99.90
20400;DHT22;10359;53.596;22.520;2022-11-15T00:15:21;8.20;99.90
20400;DHT22;10359;53.596;22.520;2022-11-15T00:17:50;8.30;99.90
20400;DHT22;10359;53.596;22.520;2022-11-15T00:20:19;8.30;99.90
20400;DHT22;10359;53.596;22.520;2022-11-15T00:22:48;8.20;99.90
20400;DHT22;10359;53.596;22.520;2022-11-15T00:25:17;8.20;99.90
20400;DHT22;10359;53.596;22.520;2022-11-15T00:27:46;8.20;99.90
20400;DHT22;10359;53.596;22.520;2022-11-15T00:30:15;8.20;99.90
20400;DHT22;10359;53.596;22.520;2022-11-15T00:32:45;8.20;99.90
20400;DHT22;10359;53.596;22.520;2022-11-15T00:35:15;8.20;99.90
20400;DHT22;10359;53.596;22.520;2022-11-15T00:37:43;8.30;99.90
20400;DHT22;10359;53.596;22.520;2022-11-15T00:40:14;8.30;99.90
20400;DHT22;10359;53.596;22.520;2022-11-15T00:42:43;8.30;99.90
20400;DHT22;10359;53.596;22.520;2022-11-15T00:45:12;8.20;99.90
20400;DHT22;10359;53.596;22.520;2022-11-15T00:47:41;8.30;99.90
20400;DHT22;10359;53.596;22.520;2022-11-15T00:50:14;8.20;99.90
20400;DHT22;10359;53.596;22.520;2022-11-15T00:52:44;8.30;99.90
20400;DHT22;10359;53.596;22.520;2022-11-15T00:55:14;8.20;99.90
20400;DHT22;10359;53.596;22.520;2022-11-15T00:57:44;8.20;99.90
20400;DHT22;10359;53.596;22.520;2022-11-15T01:00:13;8.20;99.90
20400;DHT22;10359;53.596;22.520;2022-11-15T01:02:42;8.10;99.90
20400;DHT22;10359;53.596;22.520;2022-11-15T01:05:13;8.20;99.90
20400;DHT22;10359;53.596;22.520;2022-11-15T01:07:42;8.20;99.90
20400;DHT22;10359;53.596;22.520;2022-11-15T01:10:12;8.30;99.90
20400;DHT22;10359;53.596;22.520;2022-11-15T01:12:41;8.20;99.90
20400;DHT22;10359;53.596;22.520;2022-11-15T01:15:10;8.20;99.90
20400;DHT22;10359;53.596;22.520;2022-11-15T01:17:39;8.30;99.90
20400;DHT22;10359;53.596;22.520;2022-11-15T01:20:09;8.30;99.90
20400;DHT22;10359;53.596;22.520;2022-11-15T01:22:39;8.20;99.90
20400;DHT22;10359;53.596;22.520;2022-11-15T01:25:08;8.30;99.90
20400;DHT22;10359;53.596;22.520;2022-11-15T01:27:37;8.20;99.90
20400;DHT22;10359;53.596;22.520;2022-11-15T01:30:07;8.10;99.90
20400;DHT22;10359;53.596;22.520;2022-11-15T01:32:36;8.10;99.90
20400;DHT22;10359;53.596;22.520;2022-11-15T01:35:06;8.00;99.90
20400;DHT22;10359;53.596;22.520;2022-11-15T01:37:35;8.10;99.90
20400;DHT22;10359;53.596;22.520;2022-11-15T01:40:06;8.10;99.90
20400;DHT22;10359;53.596;22.520;2022-11-15T01:42:35;8.10;99.90
20400;DHT22;10359;53.596;22.520;2022-11-15T01:45:05;8.20;99.90
20400;DHT22;10359;53.596;22.520;2022-11-15T01:47:37;8.20;99.90
20400;DHT22;10359;53.596;22.520;2022-11-15T01:50:12;8.20;99.90
20400;DHT22;10359;53.596;22.520;2022-11-15T01:52:43;8.10;99.90
20400;DHT22;10359;53.596;22.520;2022-11-15T01:55:16;8.10;99.90
20400;DHT22;10359;53.596;22.520;2022-11-15T01:57:49;8.10;99.90
20400;DHT22;10359;53.596;22.520;2022-11-15T02:00:19;8.10;99.90
20400;DHT22;10359;53.596;22.520;2022-11-15T02:02:48;8.10;99.90
20400;DHT22;10359;53.596;22.520;2022-11-15T02:05:17;8.10;99.90
20400;DHT22;10359;53.596;22.520;2022-11-15T02:07:47;8.10;99.90
20400;DHT22;10359;53.596;22.520;2022-11-15T02:10:21;8.10;99.90
20400;DHT22;10359;53.596;22.520;2022-11-15T02:12:51;8.00;99.90
20400;DHT22;10359;53.596;22.520;2022-11-15T02:15:20;8.00;99.90
20400;DHT22;10359;53.596;22.520;2022-11-15T02:18:01;8.10;99.90
20400;DHT22;10359;53.596;22.520;2022-11-15T02:20:47;8.00;99.90
20400;DHT22;10359;53.596;22.520;2022-11-15T02:29:41;8.00;99.90
20400;DHT22;10359;53.596;22.520;2022-11-15T02:32:20;8.10;99.90
20400;DHT22;10359;53.596;22.520;2022-11-15T02:34:54;8.10;99.90
20400;DHT22;10359;53.596;22.520;2022-11-15T02:37:32;8.10;99.90
20400;DHT22;10359;53.596;22.520;2022-11-15T02:40:10;8.00;99.90
20400;DHT22;10359;53.596;22.520;2022-11-15T02:42:47;8.00;99.90
20400;DHT22;10359;53.596;22.520;2022-11-15T02:45:39;8.00;99.90
20400;DHT22;10359;53.596;22.520;2022-11-15T02:48:11;8.00;99.90
20400;DHT22;10359;53.596;22.520;2022-11-15T02:50:41;7.90;99.90
20400;DHT22;10359;53.596;22.520;2022-11-15T02:53:11;7.90;99.90
20400;DHT22;10359;53.596;22.520;2022-11-15T02:55:43;7.90;99.90
20400;DHT22;10359;53.596;22.520;2022-11-15T02:58:26;7.80;99.90
20400;DHT22;10359;53.596;22.520;2022-11-15T03:01:06;7.70;99.90
20400;DHT22;10359;53.596;22.520;2022-11-15T03:03:46;7.70;99.90
20400;DHT22;10359;53.596;22.520;2022-11-15T03:06:24;7.70;99.90
20400;DHT22;10359;53.596;22.520;2022-11-15T03:09:03;7.70;99.90
20400;DHT22;10359;53.596;22.520;2022-11-15T03:11:36;7.80;99.90
20400;DHT22;10359;53.596;22.520;2022-11-15T03:14:17;7.70;99.90
20400;DHT22;10359;53.596;22.520;2022-11-15T03:16:54;7.70;99.90
20400;DHT22;10359;53.596;22.520;2022-11-15T03:19:32;7.70;99.90
20400;DHT22;10359;53.596;22.520;2022-11-15T03:22:04;7.70;99.90
20400;DHT22;10359;53.596;22.520;2022-11-15T03:24:36;7.80;99.90
20400;DHT22;10359;53.596;22.520;2022-11-15T03:27:06;7.80;99.90
20400;DHT22;10359;53.596;22.520;2022-11-15T03:29:39;7.80;99.90
20400;DHT22;10359;53.596;22.520;2022-11-15T03:32:12;7.80;99.90
20400;DHT22;10359;53.596;22.520;2022-11-15T03:34:49;7.80;99.90
20400;DHT22;10359;53.596;22.520;2022-11-15T03:37:21;7.80;99.90
20400;DHT22;10359;53.596;22.520;2022-11-15T03:39:51;7.80;99.90
20400;DHT22;10359;53.596;22.520;2022-11-15T03:42:24;7.80;99.90
20400;DHT22;10359;53.596;22.520;2022-11-15T03:44:59;7.80;99.90
20400;DHT22;10359;53.596;22.520;2022-11-15T03:47:34;7.80;99.90
20400;DHT22;10359;53.596;22.520;2022-11-15T03:50:08;7.70;99.90
20400;DHT22;10359;53.596;22.520;2022-11-15T03:52:39;7.70;99.90
20400;DHT22;10359;53.596;22.520;2022-11-15T03:55:11;7.70;99.90
20400;DHT22;10359;53.596;22.520;2022-11-15T03:57:41;7.70;99.90
20400;DHT22;10359;53.596;22.520;2022-11-15T04:00:11;7.60;99.90
20400;DHT22;10359;53.596;22.520;2022-11-15T04:02:40;7.60;99.90
20400;DHT22;10359;53.596;22.520;2022-11-15T04:05:10;7.50;99.90
20400;DHT22;10359;53.596;22.520;2022-11-15T04:07:39;7.40;99.90
20400;DHT22;10359;53.596;22.520;2022-11-15T04:10:10;7.40;99.90
20400;DHT22;10359;53.596;22.520;2022-11-15T04:12:40;7.40;99.90
20400;DHT22;10359;53.596;22.520;2022-11-15T04:15:13;7.40;99.90
20400;DHT22;10359;53.596;22.520;2022-11-15T04:17:44;7.50;99.90
20400;DHT22;10359;53.596;22.520;2022-11-15T04:20:17;7.50;99.90
20400;DHT22;10359;53.596;22.520;2022-11-15T04:23:06;7.50;99.90
20400;DHT22;10359;53.596;22.520;2022-11-15T04:25:53;7.40;99.90
20400;DHT22;10359;53.596;22.520;2022-11-15T04:28:23;7.40;99.90
20400;DHT22;10359;53.596;22.520;2022-11-15T04:30:52;7.40;99.90
20400;DHT22;10359;53.596;22.520;2022-11-15T04:33:21;7.40;99.90
20400;DHT22;10359;53.596;22.520;2022-11-15T04:35:52;7.40;99.90
20400;DHT22;10359;53.596;22.520;2022-11-15T04:38:38;7.30;99.90
20400;DHT22;10359;53.596;22.520;2022-11-15T04:41:07;7.30;99.90
20400;DHT22;10359;53.596;22.520;2022-11-15T04:43:36;7.30;99.90
20400;DHT22;10359;53.596;22.520;2022-11-15T04:46:05;7.40;99.90
20400;DHT22;10359;53.596;22.520;2022-11-15T04:48:35;7.40;99.90
20400;DHT22;10359;53.596;22.520;2022-11-15T04:51:05;7.40;99.90
20400;DHT22;10359;53.596;22.520;2022-11-15T04:53:34;7.40;99.90
20400;DHT22;10359;53.596;22.520;2022-11-15T04:56:03;7.30;99.90
20400;DHT22;10359;53.596;22.520;2022-11-15T04:58:32;7.30;99.90
20400;DHT22;10359;53.596;22.520;2022-11-15T05:01:07;7.30;99.90
20400;DHT22;10359;53.596;22.520;2022-11-15T05:03:36;7.20;99.90
20400;DHT22;10359;53.596;22.520;2022-11-15T05:06:24;7.20;99.90
20400;DHT22;10359;53.596;22.520;2022-11-15T05:08:53;7.10;99.90
20400;DHT22;10359;53.596;22.520;2022-11-15T05:11:22;7.10;99.90
20400;DHT22;10359;53.596;22.520;2022-11-15T05:13:51;7.10;99.90
20400;DHT22;10359;53.596;22.520;2022-11-15T05:16:20;7.10;99.90
20400;DHT22;10359;53.596;22.520;2022-11-15T05:18:51;7.00;99.90
20400;DHT22;10359;53.596;22.520;2022-11-15T05:21:20;7.00;99.90
20400;DHT22;10359;53.596;22.520;2022-11-15T05:23:50;7.10;99.90
20400;DHT22;10359;53.596;22.520;2022-11-15T05:26:19;7.10;99.90
20400;DHT22;10359;53.596;22.520;2022-11-15T05:28:52;7.10;99.90
20400;DHT22;10359;53.596;22.520;2022-11-15T05:31:22;7.10;99.90
20400;DHT22;10359;53.596;22.520;2022-11-15T05:33:52;7.00;99.90
20400;DHT22;10359;53.596;22.520;2022-11-15T05:36:27;7.00;99.90
20400;DHT22;10359;53.596;22.520;2022-11-15T05:38:59;7.00;99.90
20400;DHT22;10359;53.596;22.520;2022-11-15T05:41:32;7.00;99.90
20400;DHT22;10359;53.596;22.520;2022-11-15T05:44:03;7.00;99.90
20400;DHT22;10359;53.596;22.520;2022-11-15T05:46:36;7.10;99.90
20400;DHT22;10359;53.596;22.520;2022-11-15T05:49:07;7.10;99.90
20400;DHT22;10359;53.596;22.520;2022-11-15T05:51:39;7.10;99.90
20400;DHT22;10359;53.596;22.520;2022-11-15T05:54:10;7.10;99.90
20400;DHT22;10359;53.596;22.520;2022-11-15T05:56:39;7.10;99.90
20400;DHT22;10359;53.596;22.520;2022-11-15T05:59:09;7.00;99.90
20400;DHT22;10359;53.596;22.520;2022-11-15T06:01:39;7.00;99.90
20400;DHT22;10359;53.596;22.520;2022-11-15T06:04:08;6.90;99.90
20400;DHT22;10359;53.596;22.520;2022-11-15T06:06:37;7.00;99.90
20400;DHT22;10359;53.596;22.520;2022-11-15T06:09:05;7.00;99.90
20400;DHT22;10359;53.596;22.520;2022-11-15T06:11:36;7.00;99.90
20400;DHT22;10359;53.596;22.520;2022-11-15T06:14:05;6.90;99.90
20400;DHT22;10359;53.596;22.520;2022-11-15T06:16:34;6.90;99.90
20400;DHT22;10359;53.596;22.520;2022-11-15T06:19:03;6.80;99.90
20400;DHT22;10359;53.596;22.520;2022-11-15T06:21:34;6.80;99.90
20400;DHT22;10359;53.596;22.520;2022-11-15T06:24:03;6.90;99.90
20400;DHT22;10359;53.596;22.520;2022-11-15T06:26:33;6.90;99.90
20400;DHT22;10359;53.596;22.520;2022-11-15T06:29:04;7.00;99.90
20400;DHT22;10359;53.596;22.520;2022-11-15T06:31:34;7.00;99.90
20400;DHT22;10359;53.596;22.520;2022-11-15T06:34:03;7.10;99.90
20400;DHT22;10359;53.596;22.520;2022-11-15T06:36:34;7.00;99.90
20400;DHT22;10359;53.596;22.520;2022-11-15T06:39:04;7.10;99.90
20400;DHT22;10359;53.596;22.520;2022-11-15T06:41:34;7.10;99.90
20400;DHT22;10359;53.596;22.520;2022-11-15T06:44:05;7.10;99.90
20400;DHT22;10359;53.596;22.520;2022-11-15T06:46:34;7.00;99.90
20400;DHT22;10359;53.596;22.520;2022-11-15T06:49:03;7.10;99.90
20400;DHT22;10359;53.596;22.520;2022-11-15T06:51:36;7.10;99.90
20400;DHT22;10359;53.596;22.520;2022-11-15T06:54:05;7.00;99.90
20400;DHT22;10359;53.596;22.520;2022-11-15T06:56:34;7.10;99.90
20400;DHT22;10359;53.596;22.520;2022-11-15T06:59:05;7.10;99.90
20400;DHT22;10359;53.596;22.520;2022-11-15T07:01:33;7.10;99.90
20400;DHT22;10359;53.596;22.520;2022-11-15T07:04:02;7.00;99.90
20400;DHT22;10359;53.596;22.520;2022-11-15T07:06:31;7.10;99.90
20400;DHT22;10359;53.596;22.520;2022-11-15T07:09:02;7.10;99.90
20400;DHT22;10359;53.596;22.520;2022-11-15T07:11:32;7.20;99.90
20400;DHT22;10359;53.596;22.520;2022-11-15T07:14:01;7.20;99.90
20400;DHT22;10359;53.596;22.520;2022-11-15T07:16:32;7.30;99.90
20400;DHT22;10359;53.596;22.520;2022-11-15T07:19:01;7.30;99.90
20400;DHT22;10359;53.596;22.520;2022-11-15T07:21:29;7.20;99.90
20400;DHT22;10359;53.596;22.520;2022-11-15T07:23:58;7.20;99.90
20400;DHT22;10359;53.596;22.520;2022-11-15T07:26:27;7.20;99.90
20400;DHT22;10359;53.596;22.520;2022-11-15T07:28:57;7.20;99.90
20400;DHT22;10359;53.596;22.520;2022-11-15T07:31:26;7.10;99.90
20400;DHT22;10359;53.596;22.520;2022-11-15T07:33:56;7.20;99.90
20400;DHT22;10359;53.596;22.520;2022-11-15T07:36:25;7.10;99.90
20400;DHT22;10359;53.596;22.520;2022-11-15T07:38:54;7.20;99.90
20400;DHT22;10359;53.596;22.520;2022-11-15T07:41:23;7.30;99.90
20400;DHT22;10359;53.596;22.520;2022-11-15T07:43:52;7.30;99.90
20400;DHT22;10359;53.596;22.520;2022-11-15T07:46:21;7.30;99.90
20400;DHT22;10359;53.596;22.520;2022-11-15T07:48:50;7.40;99.90
20400;DHT22;10359;53.596;22.520;2022-11-15T07:51:20;7.20;99.90
20400;DHT22;10359;53.596;22.520;2022-11-15T07:53:49;7.20;99.90
20400;DHT22;10359;53.596;22.520;2022-11-15T07:56:18;7.30;99.90
20400;DHT22;10359;53.596;22.520;2022-11-15T07:58:48;7.30;99.90
20400;DHT22;10359;53.596;22.520;2022-11-15T08:01:17;7.30;99.90
20400;DHT22;10359;53.596;22.520;2022-11-15T08:03:46;7.20;99.90
20400;DHT22;10359;53.596;22.520;2022-11-15T08:06:17;7.30;99.90
20400;DHT22;10359;53.596;22.520;2022-11-15T08:08:48;7.40;99.90
20400;DHT22;10359;53.596;22.520;2022-11-15T08:11:17;7.40;99.90
20400;DHT22;10359;53.596;22.520;2022-11-15T08:13:46;7.40;99.90
20400;DHT22;10359;53.596;22.520;2022-11-15T08:16:15;7.40;99.90
20400;DHT22;10359;53.596;22.520;2022-11-15T08:18:44;7.40;99.90
20400;DHT22;10359;53.596;22.520;2022-11-15T08:21:14;7.40;99.90
20400;DHT22;10359;53.596;22.520;2022-11-15T08:23:47;7.50;99.90
20400;DHT22;10359;53.596;22.520;2022-11-15T08:26:16;7.40;99.90
20400;DHT22;10359;53.596;22.520;2022-11-15T08:28:45;7.50;99.90
20400;DHT22;10359;53.596;22.520;2022-11-15T08:31:16;7.30;99.90
20400;DHT22;10359;53.596;22.520;2022-11-15T08:33:46;7.20;99.90
20400;DHT22;10359;53.596;22.520;2022-11-15T08:36:16;7.20;99.90
20400;DHT22;10359;53.596;22.520;2022-11-15T08:38:45;7.20;99.90
20400;DHT22;10359;53.596;22.520;2022-11-15T08:41:23;7.30;99.90
20400;DHT22;10359;53.596;22.520;2022-11-15T08:43:53;7.30;99.90
20400;DHT22;10359;53.596;22.520;2022-11-15T08:46:23;7.30;99.90
20400;DHT22;10359;53.596;22.520;2022-11-15T08:48:52;7.30;99.90
20400;DHT22;10359;53.596;22.520;2022-11-15T08:51:21;7.20;99.90
20400;DHT22;10359;53.596;22.520;2022-11-15T08:53:50;7.30;99.90
20400;DHT22;10359;53.596;22.520;2022-11-15T08:56:21;7.30;99.90
20400;DHT22;10359;53.596;22.520;2022-11-15T08:58:50;7.20;99.90
20400;DHT22;10359;53.596;22.520;2022-11-15T09:01:20;7.30;99.90
20400;DHT22;10359;53.596;22.520;2022-11-15T09:03:49;7.30;99.90
20400;DHT22;10359;53.596;22.520;2022-11-15T09:06:18;7.30;99.90
20400;DHT22;10359;53.596;22.520;2022-11-15T09:08:47;7.30;99.90
20400;DHT22;10359;53.596;22.520;2022-11-15T09:11:16;7.30;99.90
20400;DHT22;10359;53.596;22.520;2022-11-15T09:13:49;7.30;99.90
20400;DHT22;10359;53.596;22.520;2022-11-15T09:16:18;7.30;99.90
20400;DHT22;10359;53.596;22.520;2022-11-15T09:18:47;7.30;99.90
20400;DHT22;10359;53.596;22.520;2022-11-15T09:21:16;7.20;99.90
20400;DHT22;10359;53.596;22.520;2022-11-15T09:23:45;7.30;99.90
20400;DHT22;10359;53.596;22.520;2022-11-15T09:26:14;7.30;99.90
20400;DHT22;10359;53.596;22.520;2022-11-15T09:28:43;7.20;99.90
20400;DHT22;10359;53.596;22.520;2022-11-15T09:31:13;7.30;99.90
20400;DHT22;10359;53.596;22.520;2022-11-15T09:33:48;7.30;99.90
20400;DHT22;10359;53.596;22.520;2022-11-15T09:36:17;7.30;99.90
20400;DHT22;10359;53.596;22.520;2022-11-15T09:38:47;7.10;99.90
20400;DHT22;10359;53.596;22.520;2022-11-15T09:42:00;7.20;99.90
20400;DHT22;10359;53.596;22.520;2022-11-15T09:44:41;7.20;99.90
20400;DHT22;10359;53.596;22.520;2022-11-15T09:50:21;7.20;99.90
20400;DHT22;10359;53.596;22.520;2022-11-15T09:52:55;7.30;99.90
20400;DHT22;10359;53.596;22.520;2022-11-15T09:55:34;7.20;99.90
20400;DHT22;10359;53.596;22.520;2022-11-15T09:58:14;7.40;99.90
20400;DHT22;10359;53.596;22.520;2022-11-15T10:00:47;7.20;99.90
20400;DHT22;10359;53.596;22.520;2022-11-15T10:03:26;7.30;99.90
20400;DHT22;10359;53.596;22.520;2022-11-15T10:06:00;7.20;99.90
20400;DHT22;10359;53.596;22.520;2022-11-15T10:08:51;7.20;99.90
20400;DHT22;10359;53.596;22.520;2022-11-15T10:11:24;7.30;99.90
20400;DHT22;10359;53.596;22.520;2022-11-15T10:14:12;7.30;99.90
20400;DHT22;10359;53.596;22.520;2022-11-15T10:19:55;7.30;99.90
20400;DHT22;10359;53.596;22.520;2022-11-15T10:22:37;7.20;99.90
20400;DHT22;10359;53.596;22.520;2022-11-15T10:25:18;7.20;99.90
20400;DHT22;10359;53.596;22.520;2022-11-15T10:27:54;7.30;99.90
20400;DHT22;10359;53.596;22.520;2022-11-15T10:30:29;7.30;99.90
20400;DHT22;10359;53.596;22.520;2022-11-15T10:33:09;7.40;99.90
20400;DHT22;10359;53.596;22.520;2022-11-15T10:35:42;7.40;99.90
20400;DHT22;10359;53.596;22.520;2022-11-15T10:38:11;7.40;99.90
20400;DHT22;10359;53.596;22.520;2022-11-15T10:40:41;7.30;99.90
20400;DHT22;10359;53.596;22.520;2022-11-15T10:43:17;7.30;99.90
20400;DHT22;10359;53.596;22.520;2022-11-15T10:45:46;7.20;99.90
20400;DHT22;10359;53.596;22.520;2022-11-15T10:48:23;7.10;99.90
20400;DHT22;10359;53.596;22.520;2022-11-15T10:50:54;7.20;99.90
20400;DHT22;10359;53.596;22.520;2022-11-15T10:53:28;7.10;99.90
20400;DHT22;10359;53.596;22.520;2022-11-15T10:56:01;7.20;99.90
20400;DHT22;10359;53.596;22.520;2022-11-15T10:58:34;7.20;99.90
20400;DHT22;10359;53.596;22.520;2022-11-15T11:01:13;7.20;99.90
20400;DHT22;10359;53.596;22.520;2022-11-15T11:03:43;7.30;99.90
20400;DHT22;10359;53.596;22.520;2022-11-15T11:06:15;7.20;99.90
20400;DHT22;10359;53.596;22.520;2022-11-15T11:08:56;7.20;99.90
20400;DHT22;10359;53.596;22.520;2022-11-15T11:11:28;7.30;99.90
20400;DHT22;10359;53.596;22.520;2022-11-15T11:14:13;7.20;99.90
20400;DHT22;10359;53.596;22.520;2022-11-15T11:16:48;7.10;99.90
20400;DHT22;10359;53.596;22.520;2022-11-15T11:19:40;7.10;99.90
20400;DHT22;10359;53.596;22.520;2022-11-15T11:22:20;7.10;99.90
20400;DHT22;10359;53.596;22.520;2022-11-15T11:25:02;7.20;99.90
20400;DHT22;10359;53.596;22.520;2022-11-15T11:27:43;7.20;99.90
20400;DHT22;10359;53.596;22.520;2022-11-15T11:30:17;7.20;99.90
20400;DHT22;10359;53.596;22.520;2022-11-15T11:32:56;7.10;99.90
20400;DHT22;10359;53.596;22.520;2022-11-15T11:35:32;7.20;99.90
20400;DHT22;10359;53.596;22.520;2022-11-15T11:38:18;7.20;99.90
20400;DHT22;10359;53.596;22.520;2022-11-15T11:41:04;7.20;99.90
20400;DHT22;10359;53.596;22.520;2022-11-15T11:43:43;7.20;99.90
20400;DHT22;10359;53.596;22.520;2022-11-15T11:46:33;7.30;99.90
20400;DHT22;10359;53.596;22.520;2022-11-15T11:49:08;7.20;99.90
20400;DHT22;10359;53.596;22.520;2022-11-15T11:51:41;7.30;99.90
20400;DHT22;10359;53.596;22.520;2022-11-15T11:54:19;7.40;99.90
20400;DHT22;10359;53.596;22.520;2022-11-15T11:56:50;7.50;99.90
20400;DHT22;10359;53.596;22.520;2022-11-15T11:59:23;7.50;99.90
20400;DHT22;10359;53.596;22.520;2022-11-15T12:01:54;7.40;99.90
20400;DHT22;10359;53.596;22.520;2022-11-15T12:04:29;7.40;99.90
20400;DHT22;10359;53.596;22.520;2022-11-15T12:07:01;7.40;99.90
20400;DHT22;10359;53.596;22.520;2022-11-15T12:09:36;7.40;99.90
20400;DHT22;10359;53.596;22.520;2022-11-15T12:12:11;7.40;99.90
20400;DHT22;10359;53.596;22.520;2022-11-15T12:14:48;7.40;99.90
20400;DHT22;10359;53.596;22.520;2022-11-15T12:17:22;7.30;99.90
20400;DHT22;10359;53.596;22.520;2022-11-15T12:19:52;7.30;99.90
20400;DHT22;10359;53.596;22.520;2022-11-15T12:22:33;7.30;99.90
20400;DHT22;10359;53.596;22.520;2022-11-15T12:25:13;7.40;99.90
20400;DHT22;10359;53.596;22.520;2022-11-15T12:27:46;7.40;99.90
20400;DHT22;10359;53.596;22.520;2022-11-15T12:30:19;7.40;99.90
20400;DHT22;10359;53.596;22.520;2022-11-15T12:32:51;7.40;99.90
20400;DHT22;10359;53.596;22.520;2022-11-15T12:35:26;7.50;99.90
20400;DHT22;10359;53.596;22.520;2022-11-15T12:37:55;7.50;99.90
20400;DHT22;10359;53.596;22.520;2022-11-15T12:40:29;7.40;99.90
20400;DHT22;10359;53.596;22.520;2022-11-15T12:45:47;7.40;99.90
20400;DHT22;10359;53.596;22.520;2022-11-15T12:55:02;7.30;99.90
20400;DHT22;10359;53.596;22.520;2022-11-15T12:57:35;7.30;99.90
20400;DHT22;10359;53.596;22.520;2022-11-15T13:03:36;7.20;99.90
20400;DHT22;10359;53.596;22.520;2022-11-15T13:06:39;7.10;99.90
20400;DHT22;10359;53.596;22.520;2022-11-15T13:12:54;7.20;99.90
20400;DHT22;10359;53.596;22.520;2022-11-15T13:15:54;7.20;99.90
20400;DHT22;10359;53.596;22.520;2022-11-15T13:18:33;7.20;99.90
20400;DHT22;10359;53.596;22.520;2022-11-15T13:21:05;7.20;99.90
20400;DHT22;10359;53.596;22.520;2022-11-15T13:23:55;7.20;99.90
20400;DHT22;10359;53.596;22.520;2022-11-15T13:26:24;7.30;99.90
20400;DHT22;10359;53.596;22.520;2022-11-15T13:28:55;7.30;99.90
20400;DHT22;10359;53.596;22.520;2022-11-15T13:31:27;7.40;99.90
20400;DHT22;10359;53.596;22.520;2022-11-15T13:34:00;7.40;99.90
20400;DHT22;10359;53.596;22.520;2022-11-15T13:36:43;7.50;99.90
20400;DHT22;10359;53.596;22.520;2022-11-15T13:39:26;7.50;99.90
20400;DHT22;10359;53.596;22.520;2022-11-15T13:41:55;7.50;99.90
20400;DHT22;10359;53.596;22.520;2022-11-15T13:44:27;7.50;99.90
20400;DHT22;10359;53.596;22.520;2022-11-15T13:47:05;7.50;99.90
20400;DHT22;10359;53.596;22.520;2022-11-15T13:49:34;7.60;99.90
20400;DHT22;10359;53.596;22.520;2022-11-15T13:52:06;7.50;99.90
20400;DHT22;10359;53.596;22.520;2022-11-15T13:54:38;7.50;99.90
20400;DHT22;10359;53.596;22.520;2022-11-15T13:57:12;7.60;99.90
20400;DHT22;10359;53.596;22.520;2022-11-15T13:59:48;7.60;99.90
20400;DHT22;10359;53.596;22.520;2022-11-15T14:02:18;7.50;99.90
20400;DHT22;10359;53.596;22.520;2022-11-15T14:04:50;7.60;99.90
20400;DHT22;10359;53.596;22.520;2022-11-15T14:07:22;7.50;99.90
20400;DHT22;10359;53.596;22.520;2022-11-15T14:09:52;7.30;99.90
20400;DHT22;10359;53.596;22.520;2022-11-15T14:12:29;7.30;99.90
20400;DHT22;10359;53.596;22.520;2022-11-15T14:15:19;7.10;99.90
20400;DHT22;10359;53.596;22.520;2022-11-15T14:17:53;7.10;99.90
20400;DHT22;10359;53.596;22.520;2022-11-15T14:20:31;7.10;99.90
20400;DHT22;10359;53.596;22.520;2022-11-15T14:23:01;7.10;99.90
20400;DHT22;10359;53.596;22.520;2022-11-15T14:25:31;7.20;99.90
20400;DHT22;10359;53.596;22.520;2022-11-15T14:28:30;7.30;99.90
20400;DHT22;10359;53.596;22.520;2022-11-15T14:31:10;7.20;99.90
20400;DHT22;10359;53.596;22.520;2022-11-15T14:33:40;7.20;99.90
20400;DHT22;10359;53.596;22.520;2022-11-15T14:36:13;7.20;99.90
20400;DHT22;10359;53.596;22.520;2022-11-15T14:38:42;7.20;99.90
20400;DHT22;10359;53.596;22.520;2022-11-15T14:41:18;7.20;99.90
20400;DHT22;10359;53.596;22.520;2022-11-15T14:43:48;7.20;99.90
20400;DHT22;10359;53.596;22.520;2022-11-15T14:46:19;7.30;99.90
20400;DHT22;10359;53.596;22.520;2022-11-15T14:48:47;7.10;99.90
20400;DHT22;10359;53.596;22.520;2022-11-15T14:51:17;7.10;99.90
20400;DHT22;10359;53.596;22.520;2022-11-15T14:53:47;7.20;99.90
20400;DHT22;10359;53.596;22.520;2022-11-15T14:56:16;7.10;99.90
20400;DHT22;10359;53.596;22.520;2022-11-15T14:58:45;7.10;99.90
20400;DHT22;10359;53.596;22.520;2022-11-15T15:01:19;7.20;99.90
20400;DHT22;10359;53.596;22.520;2022-11-15T15:03:48;7.20;99.90
20400;DHT22;10359;53.596;22.520;2022-11-15T15:06:19;7.20;99.90
20400;DHT22;10359;53.596;22.520;2022-11-15T15:08:48;7.10;99.90
20400;DHT22;10359;53.596;22.520;2022-11-15T15:11:21;7.20;99.90
20400;DHT22;10359;53.596;22.520;2022-11-15T15:13:50;7.20;99.90
20400;DHT22;10359;53.596;22.520;2022-11-15T15:16:21;7.20;99.90
20400;DHT22;10359;53.596;22.520;2022-11-15T15:18:50;7.20;99.90
20400;DHT22;10359;53.596;22.520;2022-11-15T15:21:21;7.20;99.90
20400;DHT22;10359;53.596;22.520;2022-11-15T15:23:51;7.10;99.90
20400;DHT22;10359;53.596;22.520;2022-11-15T15:26:21;7.10;99.90
20400;DHT22;10359;53.596;22.520;2022-11-15T15:28:51;7.10;99.90
20400;DHT22;10359;53.596;22.520;2022-11-15T15:31:21;7.10;99.90
20400;DHT22;10359;53.596;22.520;2022-11-15T15:33:50;7.20;99.90
20400;DHT22;10359;53.596;22.520;2022-11-15T15:36:19;7.40;99.90
20400;DHT22;10359;53.596;22.520;2022-11-15T15:38:48;7.20;99.90
20400;DHT22;10359;53.596;22.520;2022-11-15T15:41:17;7.20;99.90
20400;DHT22;10359;53.596;22.520;2022-11-15T15:43:46;7.10;99.90
20400;DHT22;10359;53.596;22.520;2022-11-15T15:46:17;7.20;99.90
20400;DHT22;10359;53.596;22.520;2022-11-15T15:48:48;7.20;99.90
20400;DHT22;10359;53.596;22.520;2022-11-15T15:51:17;7.20;99.90
20400;DHT22;10359;53.596;22.520;2022-11-15T15:53:47;7.30;99.90
20400;DHT22;10359;53.596;22.520;2022-11-15T15:56:17;7.30;99.90
20400;DHT22;10359;53.596;22.520;2022-11-15T15:58:47;7.30;99.90
20400;DHT22;10359;53.596;22.520;2022-11-15T16:01:15;7.30;99.90
20400;DHT22;10359;53.596;22.520;2022-11-15T16:03:44;7.30;99.90
20400;DHT22;10359;53.596;22.520;2022-11-15T16:06:38;7.20;99.90
20400;DHT22;10359;53.596;22.520;2022-11-15T16:09:13;7.10;99.90
20400;DHT22;10359;53.596;22.520;2022-11-15T16:11:45;7.10;99.90
20400;DHT22;10359;53.596;22.520;2022-11-15T16:14:14;7.10;99.90
20400;DHT22;10359;53.596;22.520;2022-11-15T16:16:43;7.10;99.90
20400;DHT22;10359;53.596;22.520;2022-11-15T16:19:12;7.10;99.90
20400;DHT22;10359;53.596;22.520;2022-11-15T16:21:43;7.10;99.90
20400;DHT22;10359;53.596;22.520;2022-11-15T16:24:12;7.20;99.90
20400;DHT22;10359;53.596;22.520;2022-11-15T16:26:41;7.20;99.90
20400;DHT22;10359;53.596;22.520;2022-11-15T16:29:10;7.20;99.90
20400;DHT22;10359;53.596;22.520;2022-11-15T16:31:39;7.10;99.90